sensor_id;sensor_type;location;lat;lon;timestamp;P1;durP1;ratioP1;P2;durP2;ratioP2
45252;SDS011;63171;50.520;30.486;2023-03-31T00:02:33;35.50;;;22.73;;
45252;SDS011;63171;50.520;30.486;2023-03-31T00:03:25;32.80;;;22.98;;
45252;SDS011;63171;50.520;30.486;2023-03-31T00:04:15;38.50;;;22.77;;
45252;SDS011;63171;50.520;30.486;2023-03-31T00:05:05;40.13;;;24.00;;
45252;SDS011;63171;50.520;30.486;2023-03-31T00:05:56;46.88;;;24.60;;
45252;SDS011;63171;50.520;30.486;2023-03-31T00:06:47;44.45;;;24.25;;
45252;SDS011;63171;50.520;30.486;2023-03-31T00:07:38;40.88;;;24.17;;
45252;SDS011;63171;50.520;30.486;2023-03-31T00:08:29;34.92;;;22.75;;
45252;SDS011;63171;50.520;30.486;2023-03-31T00:09:23;39.55;;;23.50;;
45252;SDS011;63171;50.520;30.486;2023-03-31T00:10:13;37.85;;;23.95;;
45252;SDS011;63171;50.520;30.486;2023-03-31T00:11:07;48.75;;;25.40;;
45252;SDS011;63171;50.520;30.486;2023-03-31T00:11:58;45.85;;;24.38;;
45252;SDS011;63171;50.520;30.486;2023-03-31T00:12:49;36.53;;;24.83;;
45252;SDS011;63171;50.520;30.486;2023-03-31T00:13:39;42.78;;;26.88;;
45252;SDS011;63171;50.520;30.486;2023-03-31T00:14:29;40.42;;;25.55;;
45252;SDS011;63171;50.520;30.486;2023-03-31T00:15:19;43.05;;;26.90;;
45252;SDS011;63171;50.520;30.486;2023-03-31T00:16:11;47.95;;;26.67;;
45252;SDS011;63171;50.520;30.486;2023-03-31T00:17:01;42.78;;;25.20;;
45252;SDS011;63171;50.520;30.486;2023-03-31T00:17:52;41.92;;;27.05;;
45252;SDS011;63171;50.520;30.486;2023-03-31T00:18:42;54.60;;;26.63;;
45252;SDS011;63171;50.520;30.486;2023-03-31T00:19:35;47.92;;;26.02;;
45252;SDS011;63171;50.520;30.486;2023-03-31T00:20:25;43.03;;;28.00;;
45252;SDS011;63171;50.520;30.486;2023-03-31T00:21:17;43.78;;;27.17;;
45252;SDS011;63171;50.520;30.486;2023-03-31T00:22:17;41.30;;;25.92;;
45252;SDS011;63171;50.520;30.486;2023-03-31T00:23:10;44.10;;;26.13;;
45252;SDS011;63171;50.520;30.486;2023-03-31T00:24:03;48.58;;;28.52;;
45252;SDS011;63171;50.520;30.486;2023-03-31T00:24:55;45.60;;;26.65;;
45252;SDS011;63171;50.520;30.486;2023-03-31T00:25:45;44.80;;;26.25;;
45252;SDS011;63171;50.520;30.486;2023-03-31T00:26:36;36.47;;;24.58;;
45252;SDS011;63171;50.520;30.486;2023-03-31T00:27:28;52.83;;;29.23;;
45252;SDS011;63171;50.520;30.486;2023-03-31T00:28:18;47.80;;;28.17;;
45252;SDS011;63171;50.520;30.486;2023-03-31T00:29:08;42.53;;;28.52;;
45252;SDS011;63171;50.520;30.486;2023-03-31T00:30:02;46.75;;;26.58;;
45252;SDS011;63171;50.520;30.486;2023-03-31T00:30:52;38.20;;;23.35;;
45252;SDS011;63171;50.520;30.486;2023-03-31T00:31:43;40.63;;;26.75;;
45252;SDS011;63171;50.520;30.486;2023-03-31T00:32:32;37.88;;;23.60;;
45252;SDS011;63171;50.520;30.486;2023-03-31T00:33:23;35.45;;;23.15;;
45252;SDS011;63171;50.520;30.486;2023-03-31T00:34:13;38.42;;;23.27;;
45252;SDS011;63171;50.520;30.486;2023-03-31T00:35:04;42.75;;;26.30;;
45252;SDS011;63171;50.520;30.486;2023-03-31T00:35:54;45.00;;;27.35;;
45252;SDS011;63171;50.520;30.486;2023-03-31T00:36:50;52.85;;;25.40;;
45252;SDS011;63171;50.520;30.486;2023-03-31T00:37:44;34.78;;;23.17;;
45252;SDS011;63171;50.520;30.486;2023-03-31T00:38:35;40.13;;;24.98;;
45252;SDS011;63171;50.520;30.486;2023-03-31T00:39:25;45.80;;;26.17;;
45252;SDS011;63171;50.520;30.486;2023-03-31T00:40:20;44.20;;;27.27;;
45252;SDS011;63171;50.520;30.486;2023-03-31T00:41:09;43.90;;;25.73;;
45252;SDS011;63171;50.520;30.486;2023-03-31T00:42:00;33.47;;;22.73;;
45252;SDS011;63171;50.520;30.486;2023-03-31T00:42:52;38.47;;;25.23;;
45252;SDS011;63171;50.520;30.486;2023-03-31T00:46:16;46.22;;;23.63;;
45252;SDS011;63171;50.520;30.486;2023-03-31T00:47:09;34.30;;;22.65;;
45252;SDS011;63171;50.520;30.486;2023-03-31T00:48:02;34.70;;;22.83;;
45252;SDS011;63171;50.520;30.486;2023-03-31T00:48:58;41.72;;;23.60;;
45252;SDS011;63171;50.520;30.486;2023-03-31T00:49:49;42.70;;;23.60;;
45252;SDS011;63171;50.520;30.486;2023-03-31T00:50:46;34.88;;;23.08;;
45252;SDS011;63171;50.520;30.486;2023-03-31T00:51:39;35.38;;;23.33;;
45252;SDS011;63171;50.520;30.486;2023-03-31T00:52:31;34.38;;;21.42;;
45252;SDS011;63171;50.520;30.486;2023-03-31T00:53:24;37.92;;;24.33;;
45252;SDS011;63171;50.520;30.486;2023-03-31T00:54:18;40.53;;;24.02;;
45252;SDS011;63171;50.520;30.486;2023-03-31T00:55:13;37.38;;;23.92;;
45252;SDS011;63171;50.520;30.486;2023-03-31T00:56:08;43.28;;;24.45;;
45252;SDS011;63171;50.520;30.486;2023-03-31T00:57:02;44.35;;;24.33;;
45252;SDS011;63171;50.520;30.486;2023-03-31T00:57:57;40.40;;;24.13;;
45252;SDS011;63171;50.520;30.486;2023-03-31T00:58:50;34.95;;;20.92;;
45252;SDS011;63171;50.520;30.486;2023-03-31T00:59:46;33.55;;;20.92;;
45252;SDS011;63171;50.520;30.486;2023-03-31T01:00:38;36.80;;;23.40;;
45252;SDS011;63171;50.520;30.486;2023-03-31T01:01:29;39.60;;;22.63;;
45252;SDS011;63171;50.520;30.486;2023-03-31T01:03:09;39.20;;;23.70;;
45252;SDS011;63171;50.520;30.486;2023-03-31T01:04:51;36.80;;;22.90;;
45252;SDS011;63171;50.520;30.486;2023-03-31T01:05:46;34.35;;;21.88;;
45252;SDS011;63171;50.520;30.486;2023-03-31T01:06:42;33.60;;;22.42;;
45252;SDS011;63171;50.520;30.486;2023-03-31T01:07:39;38.15;;;24.33;;
45252;SDS011;63171;50.520;30.486;2023-03-31T01:08:33;37.90;;;24.00;;
45252;SDS011;63171;50.520;30.486;2023-03-31T01:09:25;34.72;;;23.55;;
45252;SDS011;63171;50.520;30.486;2023-03-31T01:10:23;36.92;;;23.02;;
45252;SDS011;63171;50.520;30.486;2023-03-31T01:11:13;37.83;;;22.65;;
45252;SDS011;63171;50.520;30.486;2023-03-31T01:12:06;38.88;;;21.85;;
45252;SDS011;63171;50.520;30.486;2023-03-31T01:13:00;37.25;;;22.98;;
45252;SDS011;63171;50.520;30.486;2023-03-31T01:13:52;36.40;;;22.80;;
45252;SDS011;63171;50.520;30.486;2023-03-31T01:14:44;36.50;;;22.17;;
45252;SDS011;63171;50.520;30.486;2023-03-31T01:15:36;38.45;;;24.08;;
45252;SDS011;63171;50.520;30.486;2023-03-31T01:16:26;32.78;;;21.90;;
45252;SDS011;63171;50.520;30.486;2023-03-31T01:17:17;40.20;;;22.23;;
45252;SDS011;63171;50.520;30.486;2023-03-31T01:18:09;40.55;;;22.42;;
45252;SDS011;63171;50.520;30.486;2023-03-31T01:19:04;30.42;;;21.67;;
45252;SDS011;63171;50.520;30.486;2023-03-31T01:20:03;40.25;;;22.23;;
45252;SDS011;63171;50.520;30.486;2023-03-31T01:21:11;38.58;;;22.80;;
45252;SDS011;63171;50.520;30.486;2023-03-31T01:22:35;37.92;;;24.88;;
45252;SDS011;63171;50.520;30.486;2023-03-31T01:24:01;41.42;;;23.10;;
45252;SDS011;63171;50.520;30.486;2023-03-31T01:25:36;34.63;;;22.10;;
45252;SDS011;63171;50.520;30.486;2023-03-31T01:26:53;39.45;;;24.10;;
45252;SDS011;63171;50.520;30.486;2023-03-31T01:27:56;36.38;;;23.30;;
45252;SDS011;63171;50.520;30.486;2023-03-31T01:28:57;29.13;;;21.20;;
45252;SDS011;63171;50.520;30.486;2023-03-31T01:29:58;34.00;;;24.08;;
45252;SDS011;63171;50.520;30.486;2023-03-31T01:31:17;36.42;;;23.25;;
45252;SDS011;63171;50.520;30.486;2023-03-31T01:32:35;40.67;;;22.85;;
45252;SDS011;63171;50.520;30.486;2023-03-31T01:35:19;41.63;;;23.65;;
45252;SDS011;63171;50.520;30.486;2023-03-31T01:38:11;38.58;;;21.90;;
45252;SDS011;63171;50.520;30.486;2023-03-31T01:41:25;32.50;;;19.38;;
45252;SDS011;63171;50.520;30.486;2023-03-31T01:42:24;32.25;;;21.58;;
45252;SDS011;63171;50.520;30.486;2023-03-31T01:43:25;38.38;;;24.80;;
45252;SDS011;63171;50.520;30.486;2023-03-31T01:44:26;32.13;;;22.17;;
45252;SDS011;63171;50.520;30.486;2023-03-31T01:45:27;36.03;;;23.77;;
45252;SDS011;63171;50.520;30.486;2023-03-31T01:46:28;41.15;;;24.50;;
45252;SDS011;63171;50.520;30.486;2023-03-31T01:47:24;34.92;;;22.73;;
45252;SDS011;63171;50.520;30.486;2023-03-31T01:48:23;34.90;;;23.70;;
45252;SDS011;63171;50.520;30.486;2023-03-31T01:49:26;29.98;;;22.73;;
45252;SDS011;63171;50.520;30.486;2023-03-31T01:50:23;33.20;;;23.02;;
45252;SDS011;63171;50.520;30.486;2023-03-31T01:51:18;37.53;;;21.85;;
45252;SDS011;63171;50.520;30.486;2023-03-31T01:52:15;34.58;;;22.98;;
45252;SDS011;63171;50.520;30.486;2023-03-31T01:53:12;34.30;;;22.95;;
45252;SDS011;63171;50.520;30.486;2023-03-31T01:54:12;32.88;;;21.08;;
45252;SDS011;63171;50.520;30.486;2023-03-31T01:55:10;33.63;;;23.08;;
45252;SDS011;63171;50.520;30.486;2023-03-31T01:56:07;35.15;;;21.23;;
45252;SDS011;63171;50.520;30.486;2023-03-31T01:57:04;32.65;;;20.98;;
45252;SDS011;63171;50.520;30.486;2023-03-31T01:58:02;31.67;;;22.35;;
45252;SDS011;63171;50.520;30.486;2023-03-31T01:58:58;31.17;;;22.17;;
45252;SDS011;63171;50.520;30.486;2023-03-31T01:59:53;29.15;;;21.55;;
45252;SDS011;63171;50.520;30.486;2023-03-31T02:01:02;35.97;;;23.92;;
45252;SDS011;63171;50.520;30.486;2023-03-31T02:01:58;31.75;;;22.02;;
45252;SDS011;63171;50.520;30.486;2023-03-31T02:02:54;30.67;;;21.60;;
45252;SDS011;63171;50.520;30.486;2023-03-31T02:03:48;34.25;;;22.88;;
45252;SDS011;63171;50.520;30.486;2023-03-31T02:04:45;36.60;;;22.10;;
45252;SDS011;63171;50.520;30.486;2023-03-31T02:05:37;35.15;;;22.55;;
45252;SDS011;63171;50.520;30.486;2023-03-31T02:06:34;37.95;;;24.35;;
45252;SDS011;63171;50.520;30.486;2023-03-31T02:07:29;46.53;;;25.85;;
45252;SDS011;63171;50.520;30.486;2023-03-31T02:08:25;33.72;;;24.10;;
45252;SDS011;63171;50.520;30.486;2023-03-31T02:09:22;33.53;;;24.33;;
45252;SDS011;63171;50.520;30.486;2023-03-31T02:10:17;33.65;;;22.77;;
45252;SDS011;63171;50.520;30.486;2023-03-31T02:11:09;39.72;;;24.60;;
45252;SDS011;63171;50.520;30.486;2023-03-31T02:12:01;35.67;;;24.75;;
45252;SDS011;63171;50.520;30.486;2023-03-31T02:12:54;35.47;;;23.35;;
45252;SDS011;63171;50.520;30.486;2023-03-31T02:13:48;34.92;;;25.77;;
45252;SDS011;63171;50.520;30.486;2023-03-31T02:14:42;34.20;;;23.30;;
45252;SDS011;63171;50.520;30.486;2023-03-31T02:15:36;36.25;;;23.60;;
45252;SDS011;63171;50.520;30.486;2023-03-31T02:16:29;34.45;;;22.38;;
45252;SDS011;63171;50.520;30.486;2023-03-31T02:17:25;36.28;;;22.88;;
45252;SDS011;63171;50.520;30.486;2023-03-31T02:18:19;35.00;;;25.27;;
45252;SDS011;63171;50.520;30.486;2023-03-31T02:19:14;36.50;;;23.85;;
45252;SDS011;63171;50.520;30.486;2023-03-31T02:20:08;28.13;;;21.17;;
45252;SDS011;63171;50.520;30.486;2023-03-31T02:21:01;29.73;;;21.40;;
45252;SDS011;63171;50.520;30.486;2023-03-31T02:21:53;37.97;;;22.67;;
45252;SDS011;63171;50.520;30.486;2023-03-31T02:22:46;33.22;;;22.20;;
45252;SDS011;63171;50.520;30.486;2023-03-31T02:23:38;35.83;;;23.50;;
45252;SDS011;63171;50.520;30.486;2023-03-31T02:24:29;36.33;;;22.27;;
45252;SDS011;63171;50.520;30.486;2023-03-31T02:25:24;34.92;;;22.88;;
45252;SDS011;63171;50.520;30.486;2023-03-31T02:26:22;32.55;;;21.63;;
45252;SDS011;63171;50.520;30.486;2023-03-31T02:27:19;31.55;;;20.52;;
45252;SDS011;63171;50.520;30.486;2023-03-31T02:28:14;34.17;;;21.92;;
45252;SDS011;63171;50.520;30.486;2023-03-31T02:29:08;31.15;;;20.80;;
45252;SDS011;63171;50.520;30.486;2023-03-31T02:29:59;28.25;;;20.05;;
45252;SDS011;63171;50.520;30.486;2023-03-31T02:30:50;30.60;;;19.73;;
45252;SDS011;63171;50.520;30.486;2023-03-31T02:31:51;31.38;;;20.05;;
45252;SDS011;63171;50.520;30.486;2023-03-31T02:32:46;31.15;;;21.73;;
45252;SDS011;63171;50.520;30.486;2023-03-31T02:33:37;29.88;;;19.73;;
45252;SDS011;63171;50.520;30.486;2023-03-31T02:34:27;27.83;;;19.52;;
45252;SDS011;63171;50.520;30.486;2023-03-31T02:35:18;30.77;;;18.88;;
45252;SDS011;63171;50.520;30.486;2023-03-31T02:36:09;27.85;;;17.70;;
45252;SDS011;63171;50.520;30.486;2023-03-31T02:37:01;31.85;;;18.50;;
45252;SDS011;63171;50.520;30.486;2023-03-31T02:37:51;24.67;;;17.17;;
45252;SDS011;63171;50.520;30.486;2023-03-31T02:38:42;22.10;;;14.38;;
45252;SDS011;63171;50.520;30.486;2023-03-31T02:39:35;18.30;;;13.73;;
45252;SDS011;63171;50.520;30.486;2023-03-31T02:40:32;24.98;;;16.58;;
45252;SDS011;63171;50.520;30.486;2023-03-31T02:41:21;26.83;;;16.30;;
45252;SDS011;63171;50.520;30.486;2023-03-31T02:42:12;22.58;;;17.67;;
45252;SDS011;63171;50.520;30.486;2023-03-31T02:43:03;18.13;;;14.15;;
45252;SDS011;63171;50.520;30.486;2023-03-31T02:43:54;24.23;;;14.98;;
45252;SDS011;63171;50.520;30.486;2023-03-31T02:44:46;21.13;;;14.95;;
45252;SDS011;63171;50.520;30.486;2023-03-31T02:45:39;21.42;;;14.65;;
45252;SDS011;63171;50.520;30.486;2023-03-31T02:46:31;19.17;;;14.70;;
45252;SDS011;63171;50.520;30.486;2023-03-31T02:47:23;19.38;;;14.80;;
45252;SDS011;63171;50.520;30.486;2023-03-31T02:48:14;17.92;;;14.20;;
45252;SDS011;63171;50.520;30.486;2023-03-31T02:49:08;20.98;;;13.98;;
45252;SDS011;63171;50.520;30.486;2023-03-31T02:50:00;16.92;;;13.40;;
45252;SDS011;63171;50.520;30.486;2023-03-31T02:51:06;18.05;;;12.60;;
45252;SDS011;63171;50.520;30.486;2023-03-31T02:52:27;17.98;;;13.18;;
45252;SDS011;63171;50.520;30.486;2023-03-31T02:53:37;19.05;;;13.18;;
45252;SDS011;63171;50.520;30.486;2023-03-31T02:54:42;19.77;;;14.05;;
45252;SDS011;63171;50.520;30.486;2023-03-31T02:55:58;19.95;;;13.48;;
45252;SDS011;63171;50.520;30.486;2023-03-31T02:57:12;18.73;;;14.68;;
45252;SDS011;63171;50.520;30.486;2023-03-31T02:58:16;20.33;;;14.80;;
45252;SDS011;63171;50.520;30.486;2023-03-31T02:59:24;18.10;;;13.13;;
45252;SDS011;63171;50.520;30.486;2023-03-31T03:00:28;21.00;;;12.45;;
45252;SDS011;63171;50.520;30.486;2023-03-31T03:01:34;17.02;;;12.85;;
45252;SDS011;63171;50.520;30.486;2023-03-31T03:02:35;17.48;;;12.77;;
45252;SDS011;63171;50.520;30.486;2023-03-31T03:03:34;19.35;;;12.63;;
45252;SDS011;63171;50.520;30.486;2023-03-31T03:04:35;19.38;;;13.55;;
45252;SDS011;63171;50.520;30.486;2023-03-31T03:05:40;20.42;;;13.38;;
45252;SDS011;63171;50.520;30.486;2023-03-31T03:07:02;18.60;;;13.00;;
45252;SDS011;63171;50.520;30.486;2023-03-31T03:07:59;19.90;;;13.32;;
45252;SDS011;63171;50.520;30.486;2023-03-31T03:09:01;15.25;;;12.27;;
45252;SDS011;63171;50.520;30.486;2023-03-31T03:10:00;22.45;;;13.40;;
45252;SDS011;63171;50.520;30.486;2023-03-31T03:10:58;22.52;;;13.23;;
45252;SDS011;63171;50.520;30.486;2023-03-31T03:11:58;22.77;;;16.00;;
45252;SDS011;63171;50.520;30.486;2023-03-31T03:12:59;19.33;;;13.35;;
45252;SDS011;63171;50.520;30.486;2023-03-31T03:13:59;20.30;;;13.85;;
45252;SDS011;63171;50.520;30.486;2023-03-31T03:14:58;22.63;;;14.40;;
45252;SDS011;63171;50.520;30.486;2023-03-31T03:15:53;18.48;;;13.45;;
45252;SDS011;63171;50.520;30.486;2023-03-31T03:16:48;18.42;;;14.40;;
45252;SDS011;63171;50.520;30.486;2023-03-31T03:17:45;21.60;;;14.82;;
45252;SDS011;63171;50.520;30.486;2023-03-31T03:18:38;22.95;;;13.88;;
45252;SDS011;63171;50.520;30.486;2023-03-31T03:19:27;18.73;;;12.50;;
45252;SDS011;63171;50.520;30.486;2023-03-31T03:20:19;19.25;;;11.50;;
45252;SDS011;63171;50.520;30.486;2023-03-31T03:21:10;22.17;;;11.63;;
45252;SDS011;63171;50.520;30.486;2023-03-31T03:22:01;15.95;;;12.13;;
45252;SDS011;63171;50.520;30.486;2023-03-31T03:22:50;18.77;;;12.77;;
45252;SDS011;63171;50.520;30.486;2023-03-31T03:23:41;17.90;;;11.52;;
45252;SDS011;63171;50.520;30.486;2023-03-31T03:24:31;15.20;;;11.52;;
45252;SDS011;63171;50.520;30.486;2023-03-31T03:25:22;18.48;;;12.25;;
45252;SDS011;63171;50.520;30.486;2023-03-31T03:26:13;15.73;;;12.48;;
45252;SDS011;63171;50.520;30.486;2023-03-31T03:27:04;17.25;;;13.00;;
45252;SDS011;63171;50.520;30.486;2023-03-31T03:27:54;15.57;;;11.18;;
45252;SDS011;63171;50.520;30.486;2023-03-31T03:28:45;16.02;;;11.02;;
45252;SDS011;63171;50.520;30.486;2023-03-31T03:29:35;16.92;;;11.85;;
45252;SDS011;63171;50.520;30.486;2023-03-31T03:30:25;18.50;;;13.05;;
45252;SDS011;63171;50.520;30.486;2023-03-31T03:31:15;21.45;;;14.43;;
45252;SDS011;63171;50.520;30.486;2023-03-31T03:32:07;23.63;;;12.45;;
45252;SDS011;63171;50.520;30.486;2023-03-31T03:32:57;16.73;;;12.52;;
45252;SDS011;63171;50.520;30.486;2023-03-31T03:33:47;19.98;;;12.85;;
45252;SDS011;63171;50.520;30.486;2023-03-31T03:34:37;22.33;;;12.88;;
45252;SDS011;63171;50.520;30.486;2023-03-31T03:35:28;21.20;;;13.65;;
45252;SDS011;63171;50.520;30.486;2023-03-31T03:36:18;17.58;;;12.45;;
45252;SDS011;63171;50.520;30.486;2023-03-31T03:37:11;18.50;;;12.40;;
45252;SDS011;63171;50.520;30.486;2023-03-31T03:38:00;19.55;;;12.95;;
45252;SDS011;63171;50.520;30.486;2023-03-31T03:38:51;21.45;;;13.35;;
45252;SDS011;63171;50.520;30.486;2023-03-31T03:39:41;14.88;;;11.57;;
45252;SDS011;63171;50.520;30.486;2023-03-31T03:40:32;17.08;;;10.63;;
45252;SDS011;63171;50.520;30.486;2023-03-31T03:41:23;12.40;;;9.90;;
45252;SDS011;63171;50.520;30.486;2023-03-31T03:42:14;13.68;;;9.38;;
45252;SDS011;63171;50.520;30.486;2023-03-31T03:43:04;13.38;;;9.70;;
45252;SDS011;63171;50.520;30.486;2023-03-31T03:43:54;15.35;;;10.13;;
45252;SDS011;63171;50.520;30.486;2023-03-31T03:44:44;13.00;;;9.88;;
45252;SDS011;63171;50.520;30.486;2023-03-31T03:45:35;17.60;;;11.23;;
45252;SDS011;63171;50.520;30.486;2023-03-31T03:46:25;17.15;;;10.43;;
45252;SDS011;63171;50.520;30.486;2023-03-31T03:47:16;18.10;;;13.27;;
45252;SDS011;63171;50.520;30.486;2023-03-31T03:48:05;14.85;;;10.73;;
45252;SDS011;63171;50.520;30.486;2023-03-31T03:48:56;18.10;;;12.57;;
45252;SDS011;63171;50.520;30.486;2023-03-31T03:49:46;18.85;;;12.43;;
45252;SDS011;63171;50.520;30.486;2023-03-31T03:50:37;20.13;;;11.07;;
45252;SDS011;63171;50.520;30.486;2023-03-31T03:51:27;16.73;;;10.65;;
45252;SDS011;63171;50.520;30.486;2023-03-31T03:53:06;15.57;;;10.77;;
45252;SDS011;63171;50.520;30.486;2023-03-31T03:53:58;20.27;;;11.98;;
45252;SDS011;63171;50.520;30.486;2023-03-31T03:54:47;20.30;;;11.65;;
45252;SDS011;63171;50.520;30.486;2023-03-31T03:55:38;15.35;;;9.93;;
45252;SDS011;63171;50.520;30.486;2023-03-31T03:56:29;14.48;;;10.68;;
45252;SDS011;63171;50.520;30.486;2023-03-31T03:57:20;16.48;;;9.50;;
45252;SDS011;63171;50.520;30.486;2023-03-31T03:58:10;10.88;;;9.57;;
45252;SDS011;63171;50.520;30.486;2023-03-31T03:59:01;18.45;;;10.68;;
45252;SDS011;63171;50.520;30.486;2023-03-31T03:59:51;11.45;;;8.57;;
45252;SDS011;63171;50.520;30.486;2023-03-31T04:00:41;14.50;;;11.15;;
45252;SDS011;63171;50.520;30.486;2023-03-31T04:01:33;11.35;;;9.25;;
45252;SDS011;63171;50.520;30.486;2023-03-31T04:02:24;13.80;;;9.85;;
45252;SDS011;63171;50.520;30.486;2023-03-31T04:03:13;17.55;;;9.57;;
45252;SDS011;63171;50.520;30.486;2023-03-31T04:04:04;16.85;;;10.52;;
45252;SDS011;63171;50.520;30.486;2023-03-31T04:04:54;12.93;;;9.10;;
45252;SDS011;63171;50.520;30.486;2023-03-31T04:05:45;14.32;;;9.35;;
45252;SDS011;63171;50.520;30.486;2023-03-31T04:06:37;15.30;;;8.45;;
45252;SDS011;63171;50.520;30.486;2023-03-31T04:07:28;20.75;;;9.90;;
45252;SDS011;63171;50.520;30.486;2023-03-31T04:08:18;13.10;;;9.90;;
45252;SDS011;63171;50.520;30.486;2023-03-31T04:09:08;17.25;;;9.52;;
45252;SDS011;63171;50.520;30.486;2023-03-31T04:09:58;21.38;;;9.75;;
45252;SDS011;63171;50.520;30.486;2023-03-31T04:10:49;13.02;;;8.55;;
45252;SDS011;63171;50.520;30.486;2023-03-31T04:11:40;14.23;;;9.55;;
45252;SDS011;63171;50.520;30.486;2023-03-31T04:12:32;12.57;;;9.35;;
45252;SDS011;63171;50.520;30.486;2023-03-31T04:13:22;13.75;;;10.05;;
45252;SDS011;63171;50.520;30.486;2023-03-31T04:14:13;14.57;;;9.32;;
45252;SDS011;63171;50.520;30.486;2023-03-31T04:15:02;12.05;;;9.70;;
45252;SDS011;63171;50.520;30.486;2023-03-31T04:15:54;14.25;;;10.32;;
45252;SDS011;63171;50.520;30.486;2023-03-31T04:16:43;12.98;;;8.40;;
45252;SDS011;63171;50.520;30.486;2023-03-31T04:17:35;19.13;;;10.30;;
45252;SDS011;63171;50.520;30.486;2023-03-31T04:18:25;17.50;;;8.93;;
45252;SDS011;63171;50.520;30.486;2023-03-31T04:19:16;16.25;;;9.82;;
45252;SDS011;63171;50.520;30.486;2023-03-31T04:20:07;12.10;;;8.45;;
45252;SDS011;63171;50.520;30.486;2023-03-31T04:20:59;11.73;;;8.18;;
45252;SDS011;63171;50.520;30.486;2023-03-31T04:21:52;13.23;;;8.95;;
45252;SDS011;63171;50.520;30.486;2023-03-31T04:22:46;14.95;;;8.70;;
45252;SDS011;63171;50.520;30.486;2023-03-31T04:23:39;15.35;;;9.48;;
45252;SDS011;63171;50.520;30.486;2023-03-31T04:24:34;13.32;;;9.38;;
45252;SDS011;63171;50.520;30.486;2023-03-31T04:25:26;15.25;;;9.20;;
45252;SDS011;63171;50.520;30.486;2023-03-31T04:26:18;10.35;;;8.77;;
45252;SDS011;63171;50.520;30.486;2023-03-31T04:27:16;11.93;;;8.55;;
45252;SDS011;63171;50.520;30.486;2023-03-31T04:28:09;12.57;;;9.45;;
45252;SDS011;63171;50.520;30.486;2023-03-31T04:29:02;10.05;;;8.27;;
45252;SDS011;63171;50.520;30.486;2023-03-31T04:29:53;11.00;;;7.97;;
45252;SDS011;63171;50.520;30.486;2023-03-31T04:30:42;11.68;;;9.05;;
45252;SDS011;63171;50.520;30.486;2023-03-31T04:31:33;16.67;;;8.35;;
45252;SDS011;63171;50.520;30.486;2023-03-31T04:32:26;15.82;;;8.00;;
45252;SDS011;63171;50.520;30.486;2023-03-31T04:33:20;14.57;;;9.20;;
45252;SDS011;63171;50.520;30.486;2023-03-31T04:34:12;15.35;;;9.25;;
45252;SDS011;63171;50.520;30.486;2023-03-31T04:35:04;14.82;;;9.00;;
45252;SDS011;63171;50.520;30.486;2023-03-31T04:35:54;12.38;;;9.45;;
45252;SDS011;63171;50.520;30.486;2023-03-31T04:36:45;15.55;;;9.43;;
45252;SDS011;63171;50.520;30.486;2023-03-31T04:37:36;14.77;;;9.18;;
45252;SDS011;63171;50.520;30.486;2023-03-31T04:38:27;12.82;;;9.00;;
45252;SDS011;63171;50.520;30.486;2023-03-31T04:39:21;15.18;;;9.38;;
45252;SDS011;63171;50.520;30.486;2023-03-31T04:40:15;15.60;;;9.20;;
45252;SDS011;63171;50.520;30.486;2023-03-31T04:41:05;14.50;;;9.88;;
45252;SDS011;63171;50.520;30.486;2023-03-31T04:41:56;17.48;;;10.25;;
45252;SDS011;63171;50.520;30.486;2023-03-31T04:42:48;14.02;;;9.35;;
45252;SDS011;63171;50.520;30.486;2023-03-31T04:43:39;15.25;;;9.68;;
45252;SDS011;63171;50.520;30.486;2023-03-31T04:44:29;12.27;;;8.38;;
45252;SDS011;63171;50.520;30.486;2023-03-31T04:45:20;15.43;;;8.95;;
45252;SDS011;63171;50.520;30.486;2023-03-31T04:46:10;18.38;;;11.02;;
45252;SDS011;63171;50.520;30.486;2023-03-31T04:47:01;11.45;;;8.65;;
45252;SDS011;63171;50.520;30.486;2023-03-31T04:47:51;17.25;;;9.30;;
45252;SDS011;63171;50.520;30.486;2023-03-31T04:48:41;13.43;;;9.35;;
45252;SDS011;63171;50.520;30.486;2023-03-31T04:49:31;17.38;;;9.35;;
45252;SDS011;63171;50.520;30.486;2023-03-31T04:50:23;20.60;;;9.77;;
45252;SDS011;63171;50.520;30.486;2023-03-31T04:51:13;14.65;;;9.93;;
45252;SDS011;63171;50.520;30.486;2023-03-31T04:52:04;17.95;;;10.57;;
45252;SDS011;63171;50.520;30.486;2023-03-31T04:52:54;14.15;;;9.88;;
45252;SDS011;63171;50.520;30.486;2023-03-31T04:53:45;16.73;;;9.63;;
45252;SDS011;63171;50.520;30.486;2023-03-31T04:54:35;15.48;;;8.85;;
45252;SDS011;63171;50.520;30.486;2023-03-31T04:55:25;15.85;;;9.68;;
45252;SDS011;63171;50.520;30.486;2023-03-31T04:56:15;11.63;;;9.02;;
45252;SDS011;63171;50.520;30.486;2023-03-31T04:57:06;14.13;;;10.07;;
45252;SDS011;63171;50.520;30.486;2023-03-31T04:57:57;12.30;;;9.75;;
45252;SDS011;63171;50.520;30.486;2023-03-31T04:58:49;15.55;;;9.80;;
45252;SDS011;63171;50.520;30.486;2023-03-31T04:59:38;19.65;;;10.85;;
45252;SDS011;63171;50.520;30.486;2023-03-31T05:00:29;14.35;;;10.23;;
45252;SDS011;63171;50.520;30.486;2023-03-31T05:01:19;24.05;;;11.32;;
45252;SDS011;63171;50.520;30.486;2023-03-31T05:02:10;15.32;;;10.40;;
45252;SDS011;63171;50.520;30.486;2023-03-31T05:02:59;17.30;;;9.85;;
45252;SDS011;63171;50.520;30.486;2023-03-31T05:03:50;17.88;;;10.68;;
45252;SDS011;63171;50.520;30.486;2023-03-31T05:04:40;14.80;;;10.07;;
45252;SDS011;63171;50.520;30.486;2023-03-31T05:05:31;16.23;;;9.75;;
45252;SDS011;63171;50.520;30.486;2023-03-31T05:06:20;17.67;;;11.15;;
45252;SDS011;63171;50.520;30.486;2023-03-31T05:07:11;21.40;;;11.02;;
45252;SDS011;63171;50.520;30.486;2023-03-31T05:08:01;13.13;;;10.43;;
45252;SDS011;63171;50.520;30.486;2023-03-31T05:08:52;15.05;;;9.75;;
45252;SDS011;63171;50.520;30.486;2023-03-31T05:09:41;17.63;;;11.07;;
45252;SDS011;63171;50.520;30.486;2023-03-31T05:10:32;14.88;;;10.30;;
45252;SDS011;63171;50.520;30.486;2023-03-31T05:11:22;17.52;;;11.55;;
45252;SDS011;63171;50.520;30.486;2023-03-31T05:12:13;20.83;;;10.27;;
45252;SDS011;63171;50.520;30.486;2023-03-31T05:13:05;16.30;;;10.80;;
45252;SDS011;63171;50.520;30.486;2023-03-31T05:13:55;13.98;;;10.30;;
45252;SDS011;63171;50.520;30.486;2023-03-31T05:14:45;13.93;;;10.15;;
45252;SDS011;63171;50.520;30.486;2023-03-31T05:15:36;19.35;;;11.40;;
45252;SDS011;63171;50.520;30.486;2023-03-31T05:18:06;22.60;;;11.95;;
45252;SDS011;63171;50.520;30.486;2023-03-31T05:18:57;13.77;;;10.50;;
45252;SDS011;63171;50.520;30.486;2023-03-31T05:19:47;16.45;;;10.45;;
45252;SDS011;63171;50.520;30.486;2023-03-31T05:20:38;15.27;;;10.57;;
45252;SDS011;63171;50.520;30.486;2023-03-31T05:21:28;18.77;;;11.30;;
45252;SDS011;63171;50.520;30.486;2023-03-31T05:22:19;18.02;;;11.52;;
45252;SDS011;63171;50.520;30.486;2023-03-31T05:23:09;17.30;;;10.98;;
45252;SDS011;63171;50.520;30.486;2023-03-31T05:24:00;16.85;;;11.02;;
45252;SDS011;63171;50.520;30.486;2023-03-31T05:24:49;13.52;;;10.55;;
45252;SDS011;63171;50.520;30.486;2023-03-31T05:25:40;21.05;;;12.15;;